Virginia City, Montana
Current Conditions -  °F | °C
As of 1:53 PM on Tuesday 21 Oct 2014 (Local Time) from KDLN Reporting Station
Light Rain Light Rain  
Wind Chill: 35°   Ceiling: 2300
Heat Index: 42°   Visibility: 4mi
Dew Point: 39°   Wind: 15mph
Humidity: 89%   Direction: 210°SSW
Pressure: 29.86"   Gusts: 26mph
Location:  45.29°N, 111.95°W
Report Text: KDLN 211953Z AUTO 21013G23KT 4SM -RA BR OVC023 06/04 A2986 RMK AO2 PK WND 21036/1906 LTG DSNT SE AND S SLP095 P0016 T00560039
Loading
Personal Weather Stations






























Interactive Weather Map
Tropical Storm Tracking
New forecast layout! Learn more

10-Day Weather Forecast

Advertisements
Track Severe Weather on mobile